sensor_id;sensor_type;location;lat;lon;timestamp;P1;durP1;ratioP1;P2;durP2;ratioP2
25990;SDS011;13779;-33.886;151.198;2023-07-20T00:01:53;15.27;;;7.00;;
25990;SDS011;13779;-33.886;151.198;2023-07-20T00:04:28;14.93;;;5.45;;
25990;SDS011;13779;-33.886;151.198;2023-07-20T00:06:59;11.75;;;4.22;;
25990;SDS011;13779;-33.886;151.198;2023-07-20T00:09:30;15.30;;;5.65;;
25990;SDS011;13779;-33.886;151.198;2023-07-20T00:12:00;22.98;;;5.43;;
25990;SDS011;13779;-33.886;151.198;2023-07-20T00:14:31;16.15;;;4.70;;
25990;SDS011;13779;-33.886;151.198;2023-07-20T00:17:02;19.23;;;9.48;;
25990;SDS011;13779;-33.886;151.198;2023-07-20T00:19:33;11.98;;;4.57;;
25990;SDS011;13779;-33.886;151.198;2023-07-20T00:22:04;33.23;;;17.93;;
25990;SDS011;13779;-33.886;151.198;2023-07-20T00:24:34;12.37;;;4.73;;
25990;SDS011;13779;-33.886;151.198;2023-07-20T00:27:05;9.77;;;4.30;;
25990;SDS011;13779;-33.886;151.198;2023-07-20T00:29:36;14.13;;;3.90;;
25990;SDS011;13779;-33.886;151.198;2023-07-20T00:32:07;17.92;;;4.18;;
25990;SDS011;13779;-33.886;151.198;2023-07-20T00:37:07;16.35;;;4.57;;
25990;SDS011;13779;-33.886;151.198;2023-07-20T00:39:38;8.63;;;2.43;;
25990;SDS011;13779;-33.886;151.198;2023-07-20T00:42:08;13.52;;;3.53;;
25990;SDS011;13779;-33.886;151.198;2023-07-20T00:44:39;8.57;;;3.72;;
25990;SDS011;13779;-33.886;151.198;2023-07-20T00:47:10;6.38;;;2.97;;
25990;SDS011;13779;-33.886;151.198;2023-07-20T00:49:41;14.50;;;3.70;;
25990;SDS011;13779;-33.886;151.198;2023-07-20T00:52:12;11.63;;;3.45;;
25990;SDS011;13779;-33.886;151.198;2023-07-20T00:54:44;14.55;;;3.63;;
25990;SDS011;13779;-33.886;151.198;2023-07-20T00:57:14;12.38;;;3.90;;
25990;SDS011;13779;-33.886;151.198;2023-07-20T00:59:46;10.25;;;3.17;;
25990;SDS011;13779;-33.886;151.198;2023-07-20T01:02:16;9.02;;;2.70;;
25990;SDS011;13779;-33.886;151.198;2023-07-20T01:04:47;8.30;;;3.17;;
25990;SDS011;13779;-33.886;151.198;2023-07-20T01:07:27;8.53;;;3.10;;
25990;SDS011;13779;-33.886;151.198;2023-07-20T01:10:10;12.02;;;4.65;;
25990;SDS011;13779;-33.886;151.198;2023-07-20T01:12:52;10.43;;;3.80;;
25990;SDS011;13779;-33.886;151.198;2023-07-20T01:15:24;12.15;;;2.50;;
25990;SDS011;13779;-33.886;151.198;2023-07-20T01:17:54;12.98;;;3.17;;
25990;SDS011;13779;-33.886;151.198;2023-07-20T01:20:48;9.38;;;1.88;;
25990;SDS011;13779;-33.886;151.198;2023-07-20T01:31:35;5.13;;;1.50;;
25990;SDS011;13779;-33.886;151.198;2023-07-20T01:34:07;4.90;;;1.25;;
25990;SDS011;13779;-33.886;151.198;2023-07-20T01:36:41;4.72;;;1.27;;
25990;SDS011;13779;-33.886;151.198;2023-07-20T01:39:13;3.83;;;0.80;;
25990;SDS011;13779;-33.886;151.198;2023-07-20T01:41:43;4.28;;;0.90;;
25990;SDS011;13779;-33.886;151.198;2023-07-20T01:44:13;2.63;;;0.90;;
25990;SDS011;13779;-33.886;151.198;2023-07-20T01:46:44;5.10;;;1.08;;
25990;SDS011;13779;-33.886;151.198;2023-07-20T01:49:14;2.42;;;1.00;;
25990;SDS011;13779;-33.886;151.198;2023-07-20T01:51:44;1.65;;;0.95;;
25990;SDS011;13779;-33.886;151.198;2023-07-20T01:54:18;4.15;;;1.35;;
25990;SDS011;13779;-33.886;151.198;2023-07-20T01:56:50;2.83;;;1.25;;
25990;SDS011;13779;-33.886;151.198;2023-07-20T01:59:20;3.05;;;0.90;;
25990;SDS011;13779;-33.886;151.198;2023-07-20T02:01:51;2.37;;;1.07;;
25990;SDS011;13779;-33.886;151.198;2023-07-20T02:04:22;4.38;;;1.20;;
25990;SDS011;13779;-33.886;151.198;2023-07-20T02:06:53;3.58;;;1.02;;
25990;SDS011;13779;-33.886;151.198;2023-07-20T02:09:24;3.97;;;1.23;;
25990;SDS011;13779;-33.886;151.198;2023-07-20T02:11:54;7.32;;;1.40;;
25990;SDS011;13779;-33.886;151.198;2023-07-20T02:14:25;5.82;;;1.20;;
25990;SDS011;13779;-33.886;151.198;2023-07-20T02:16:55;3.17;;;0.98;;
25990;SDS011;13779;-33.886;151.198;2023-07-20T02:19:29;2.65;;;1.00;;
25990;SDS011;13779;-33.886;151.198;2023-07-20T02:22:00;6.65;;;1.48;;
25990;SDS011;13779;-33.886;151.198;2023-07-20T02:24:31;4.43;;;1.00;;
25990;SDS011;13779;-33.886;151.198;2023-07-20T02:29:32;8.18;;;4.32;;
25990;SDS011;13779;-33.886;151.198;2023-07-20T02:32:03;12.98;;;8.43;;
25990;SDS011;13779;-33.886;151.198;2023-07-20T02:34:34;7.70;;;3.13;;
25990;SDS011;13779;-33.886;151.198;2023-07-20T02:37:04;2.80;;;0.98;;
25990;SDS011;13779;-33.886;151.198;2023-07-20T02:39:38;2.45;;;1.15;;
25990;SDS011;13779;-33.886;151.198;2023-07-20T02:42:08;6.18;;;1.08;;
25990;SDS011;13779;-33.886;151.198;2023-07-20T02:44:39;5.30;;;1.50;;
25990;SDS011;13779;-33.886;151.198;2023-07-20T02:47:09;6.05;;;1.48;;
25990;SDS011;13779;-33.886;151.198;2023-07-20T02:49:40;3.58;;;1.25;;
25990;SDS011;13779;-33.886;151.198;2023-07-20T02:52:11;4.13;;;1.13;;
25990;SDS011;13779;-33.886;151.198;2023-07-20T02:54:41;1.70;;;0.95;;
25990;SDS011;13779;-33.886;151.198;2023-07-20T02:57:11;6.30;;;1.17;;
25990;SDS011;13779;-33.886;151.198;2023-07-20T02:59:41;2.30;;;1.20;;
25990;SDS011;13779;-33.886;151.198;2023-07-20T03:02:11;4.90;;;1.20;;
25990;SDS011;13779;-33.886;151.198;2023-07-20T03:04:42;4.75;;;1.20;;
25990;SDS011;13779;-33.886;151.198;2023-07-20T03:07:12;4.57;;;1.48;;
25990;SDS011;13779;-33.886;151.198;2023-07-20T03:09:44;4.15;;;1.25;;
25990;SDS011;13779;-33.886;151.198;2023-07-20T03:12:14;3.90;;;1.27;;
25990;SDS011;13779;-33.886;151.198;2023-07-20T03:14:45;3.50;;;1.98;;
25990;SDS011;13779;-33.886;151.198;2023-07-20T03:17:15;6.85;;;2.97;;
25990;SDS011;13779;-33.886;151.198;2023-07-20T03:19:45;4.20;;;2.20;;
25990;SDS011;13779;-33.886;151.198;2023-07-20T03:22:15;3.22;;;1.15;;
25990;SDS011;13779;-33.886;151.198;2023-07-20T03:24:45;3.75;;;1.13;;
25990;SDS011;13779;-33.886;151.198;2023-07-20T03:27:16;5.60;;;1.40;;
25990;SDS011;13779;-33.886;151.198;2023-07-20T03:29:46;4.68;;;1.00;;
25990;SDS011;13779;-33.886;151.198;2023-07-20T03:32:16;2.92;;;1.35;;
25990;SDS011;13779;-33.886;151.198;2023-07-20T03:34:46;4.43;;;1.63;;
25990;SDS011;13779;-33.886;151.198;2023-07-20T03:37:16;3.78;;;1.30;;
25990;SDS011;13779;-33.886;151.198;2023-07-20T03:39:46;5.55;;;1.40;;
25990;SDS011;13779;-33.886;151.198;2023-07-20T03:42:20;3.22;;;1.27;;
25990;SDS011;13779;-33.886;151.198;2023-07-20T03:44:52;2.60;;;1.25;;
25990;SDS011;13779;-33.886;151.198;2023-07-20T03:47:22;14.07;;;1.70;;
25990;SDS011;13779;-33.886;151.198;2023-07-20T03:49:52;4.97;;;2.33;;
25990;SDS011;13779;-33.886;151.198;2023-07-20T03:52:22;3.38;;;1.52;;
25990;SDS011;13779;-33.886;151.198;2023-07-20T03:54:53;4.82;;;1.40;;
25990;SDS011;13779;-33.886;151.198;2023-07-20T03:57:23;3.80;;;1.10;;
25990;SDS011;13779;-33.886;151.198;2023-07-20T03:59:53;3.83;;;2.28;;
25990;SDS011;13779;-33.886;151.198;2023-07-20T04:02:24;9.18;;;3.15;;
25990;SDS011;13779;-33.886;151.198;2023-07-20T04:04:54;6.82;;;1.58;;
25990;SDS011;13779;-33.886;151.198;2023-07-20T04:07:24;5.13;;;1.50;;
25990;SDS011;13779;-33.886;151.198;2023-07-20T04:09:54;5.90;;;1.60;;
25990;SDS011;13779;-33.886;151.198;2023-07-20T04:12:24;7.22;;;1.40;;
25990;SDS011;13779;-33.886;151.198;2023-07-20T04:14:55;3.58;;;1.00;;
25990;SDS011;13779;-33.886;151.198;2023-07-20T04:17:25;3.35;;;1.00;;
25990;SDS011;13779;-33.886;151.198;2023-07-20T04:19:55;5.35;;;1.58;;
25990;SDS011;13779;-33.886;151.198;2023-07-20T04:22:26;2.67;;;1.27;;
25990;SDS011;13779;-33.886;151.198;2023-07-20T04:24:56;3.88;;;1.15;;
25990;SDS011;13779;-33.886;151.198;2023-07-20T04:27:26;4.32;;;1.30;;
25990;SDS011;13779;-33.886;151.198;2023-07-20T04:29:57;4.05;;;1.00;;
25990;SDS011;13779;-33.886;151.198;2023-07-20T04:32:34;5.28;;;0.90;;
25990;SDS011;13779;-33.886;151.198;2023-07-20T04:35:07;1.70;;;0.82;;
25990;SDS011;13779;-33.886;151.198;2023-07-20T04:37:37;6.32;;;1.27;;
25990;SDS011;13779;-33.886;151.198;2023-07-20T04:40:15;3.83;;;1.23;;
25990;SDS011;13779;-33.886;151.198;2023-07-20T04:42:45;5.78;;;1.52;;
25990;SDS011;13779;-33.886;151.198;2023-07-20T04:45:15;3.35;;;1.20;;
25990;SDS011;13779;-33.886;151.198;2023-07-20T04:47:47;2.88;;;1.10;;
25990;SDS011;13779;-33.886;151.198;2023-07-20T04:50:19;3.50;;;1.02;;
25990;SDS011;13779;-33.886;151.198;2023-07-20T04:52:49;2.00;;;1.27;;
25990;SDS011;13779;-33.886;151.198;2023-07-20T04:55:19;2.90;;;1.02;;
25990;SDS011;13779;-33.886;151.198;2023-07-20T04:57:49;6.03;;;1.30;;
25990;SDS011;13779;-33.886;151.198;2023-07-20T05:00:20;5.50;;;1.15;;
25990;SDS011;13779;-33.886;151.198;2023-07-20T05:02:50;5.25;;;1.27;;
25990;SDS011;13779;-33.886;151.198;2023-07-20T05:05:21;5.72;;;1.00;;
25990;SDS011;13779;-33.886;151.198;2023-07-20T05:07:51;5.22;;;1.35;;
25990;SDS011;13779;-33.886;151.198;2023-07-20T05:12:52;6.50;;;1.25;;
25990;SDS011;13779;-33.886;151.198;2023-07-20T05:15:22;2.60;;;1.50;;
25990;SDS011;13779;-33.886;151.198;2023-07-20T05:17:52;3.33;;;1.00;;
25990;SDS011;13779;-33.886;151.198;2023-07-20T05:20:23;3.72;;;1.08;;
25990;SDS011;13779;-33.886;151.198;2023-07-20T05:22:53;4.80;;;1.05;;
25990;SDS011;13779;-33.886;151.198;2023-07-20T05:25:23;4.05;;;1.02;;
25990;SDS011;13779;-33.886;151.198;2023-07-20T05:27:55;2.53;;;0.95;;
25990;SDS011;13779;-33.886;151.198;2023-07-20T05:30:26;2.95;;;1.08;;
25990;SDS011;13779;-33.886;151.198;2023-07-20T05:35:27;3.63;;;1.05;;
25990;SDS011;13779;-33.886;151.198;2023-07-20T05:37:57;6.75;;;1.10;;
25990;SDS011;13779;-33.886;151.198;2023-07-20T05:40:27;7.93;;;1.67;;
25990;SDS011;13779;-33.886;151.198;2023-07-20T05:42:57;3.33;;;1.20;;
25990;SDS011;13779;-33.886;151.198;2023-07-20T05:47:58;5.07;;;1.45;;
25990;SDS011;13779;-33.886;151.198;2023-07-20T05:50:29;3.05;;;1.02;;
25990;SDS011;13779;-33.886;151.198;2023-07-20T05:52:59;2.80;;;1.15;;
25990;SDS011;13779;-33.886;151.198;2023-07-20T05:55:31;8.77;;;1.48;;
25990;SDS011;13779;-33.886;151.198;2023-07-20T05:58:01;3.75;;;0.93;;
25990;SDS011;13779;-33.886;151.198;2023-07-20T06:00:32;4.45;;;1.05;;
25990;SDS011;13779;-33.886;151.198;2023-07-20T06:03:02;3.08;;;1.05;;
25990;SDS011;13779;-33.886;151.198;2023-07-20T06:05:32;2.63;;;1.27;;
25990;SDS011;13779;-33.886;151.198;2023-07-20T06:08:03;3.30;;;1.33;;
25990;SDS011;13779;-33.886;151.198;2023-07-20T06:10:33;3.00;;;1.00;;
25990;SDS011;13779;-33.886;151.198;2023-07-20T06:13:04;5.17;;;1.47;;
25990;SDS011;13779;-33.886;151.198;2023-07-20T06:15:34;1.73;;;1.05;;
25990;SDS011;13779;-33.886;151.198;2023-07-20T06:18:05;6.33;;;1.60;;
25990;SDS011;13779;-33.886;151.198;2023-07-20T06:20:35;22.15;;;15.75;;
25990;SDS011;13779;-33.886;151.198;2023-07-20T06:23:05;4.32;;;2.05;;
25990;SDS011;13779;-33.886;151.198;2023-07-20T06:25:36;4.07;;;1.20;;
25990;SDS011;13779;-33.886;151.198;2023-07-20T06:28:06;5.82;;;1.27;;
25990;SDS011;13779;-33.886;151.198;2023-07-20T06:30:36;3.55;;;1.20;;
25990;SDS011;13779;-33.886;151.198;2023-07-20T06:33:06;4.22;;;0.80;;
25990;SDS011;13779;-33.886;151.198;2023-07-20T06:35:36;3.42;;;1.02;;
25990;SDS011;13779;-33.886;151.198;2023-07-20T06:38:07;4.03;;;1.00;;
25990;SDS011;13779;-33.886;151.198;2023-07-20T06:40:39;4.53;;;1.17;;
25990;SDS011;13779;-33.886;151.198;2023-07-20T06:43:10;5.03;;;1.20;;
25990;SDS011;13779;-33.886;151.198;2023-07-20T06:45:43;2.10;;;1.00;;
25990;SDS011;13779;-33.886;151.198;2023-07-20T06:48:13;3.38;;;1.20;;
25990;SDS011;13779;-33.886;151.198;2023-07-20T06:50:43;4.43;;;1.10;;
25990;SDS011;13779;-33.886;151.198;2023-07-20T06:53:14;2.83;;;1.05;;
25990;SDS011;13779;-33.886;151.198;2023-07-20T06:55:44;4.65;;;1.15;;
25990;SDS011;13779;-33.886;151.198;2023-07-20T06:58:14;2.42;;;1.20;;
25990;SDS011;13779;-33.886;151.198;2023-07-20T07:00:44;2.45;;;1.35;;
25990;SDS011;13779;-33.886;151.198;2023-07-20T07:03:15;4.80;;;1.27;;
25990;SDS011;13779;-33.886;151.198;2023-07-20T07:05:45;2.92;;;1.30;;
25990;SDS011;13779;-33.886;151.198;2023-07-20T07:08:17;4.35;;;1.27;;
25990;SDS011;13779;-33.886;151.198;2023-07-20T07:10:47;4.32;;;1.25;;
25990;SDS011;13779;-33.886;151.198;2023-07-20T07:13:17;5.72;;;1.30;;
25990;SDS011;13779;-33.886;151.198;2023-07-20T07:15:48;6.30;;;1.25;;
25990;SDS011;13779;-33.886;151.198;2023-07-20T07:18:18;4.82;;;1.30;;
25990;SDS011;13779;-33.886;151.198;2023-07-20T07:20:52;4.22;;;1.30;;
25990;SDS011;13779;-33.886;151.198;2023-07-20T07:23:22;2.83;;;1.35;;
25990;SDS011;13779;-33.886;151.198;2023-07-20T07:25:52;3.13;;;1.20;;
25990;SDS011;13779;-33.886;151.198;2023-07-20T07:28:23;3.78;;;1.20;;
25990;SDS011;13779;-33.886;151.198;2023-07-20T07:30:54;5.68;;;1.60;;
25990;SDS011;13779;-33.886;151.198;2023-07-20T07:33:25;3.47;;;1.40;;
25990;SDS011;13779;-33.886;151.198;2023-07-20T07:35:55;3.35;;;1.27;;
25990;SDS011;13779;-33.886;151.198;2023-07-20T07:38:28;3.00;;;1.52;;
25990;SDS011;13779;-33.886;151.198;2023-07-20T07:41:18;7.10;;;1.50;;
25990;SDS011;13779;-33.886;151.198;2023-07-20T07:43:49;3.10;;;1.33;;
25990;SDS011;13779;-33.886;151.198;2023-07-20T07:46:19;3.95;;;1.60;;
25990;SDS011;13779;-33.886;151.198;2023-07-20T07:48:49;5.70;;;1.73;;
25990;SDS011;13779;-33.886;151.198;2023-07-20T07:51:20;4.75;;;2.08;;
25990;SDS011;13779;-33.886;151.198;2023-07-20T07:53:50;4.30;;;1.73;;
25990;SDS011;13779;-33.886;151.198;2023-07-20T07:56:20;8.18;;;2.50;;
25990;SDS011;13779;-33.886;151.198;2023-07-20T07:58:51;5.70;;;2.40;;
25990;SDS011;13779;-33.886;151.198;2023-07-20T08:01:21;4.72;;;2.47;;
25990;SDS011;13779;-33.886;151.198;2023-07-20T08:03:51;8.63;;;2.60;;
25990;SDS011;13779;-33.886;151.198;2023-07-20T08:06:21;6.88;;;3.08;;
25990;SDS011;13779;-33.886;151.198;2023-07-20T08:08:52;6.25;;;3.60;;
25990;SDS011;13779;-33.886;151.198;2023-07-20T08:11:23;8.13;;;3.88;;
25990;SDS011;13779;-33.886;151.198;2023-07-20T08:13:54;11.68;;;3.83;;
25990;SDS011;13779;-33.886;151.198;2023-07-20T08:16:25;7.43;;;3.92;;
25990;SDS011;13779;-33.886;151.198;2023-07-20T08:18:56;7.65;;;3.58;;
25990;SDS011;13779;-33.886;151.198;2023-07-20T08:21:27;9.35;;;3.40;;
25990;SDS011;13779;-33.886;151.198;2023-07-20T08:23:57;7.68;;;3.38;;
25990;SDS011;13779;-33.886;151.198;2023-07-20T08:26:29;8.52;;;3.00;;
25990;SDS011;13779;-33.886;151.198;2023-07-20T08:28:59;7.75;;;3.42;;
25990;SDS011;13779;-33.886;151.198;2023-07-20T08:31:29;9.02;;;3.58;;
25990;SDS011;13779;-33.886;151.198;2023-07-20T08:33:59;9.93;;;3.35;;
25990;SDS011;13779;-33.886;151.198;2023-07-20T08:36:42;36.80;;;27.10;;
25990;SDS011;13779;-33.886;151.198;2023-07-20T08:39:12;25.20;;;15.68;;
25990;SDS011;13779;-33.886;151.198;2023-07-20T08:41:46;39.60;;;26.17;;
25990;SDS011;13779;-33.886;151.198;2023-07-20T08:44:17;24.60;;;16.33;;
25990;SDS011;13779;-33.886;151.198;2023-07-20T08:46:47;14.67;;;6.73;;
25990;SDS011;13779;-33.886;151.198;2023-07-20T08:49:19;10.35;;;4.10;;
25990;SDS011;13779;-33.886;151.198;2023-07-20T08:51:50;21.98;;;9.32;;
25990;SDS011;13779;-33.886;151.198;2023-07-20T08:54:21;25.52;;;12.40;;
25990;SDS011;13779;-33.886;151.198;2023-07-20T08:56:52;18.08;;;8.73;;
25990;SDS011;13779;-33.886;151.198;2023-07-20T08:59:23;19.42;;;8.35;;
25990;SDS011;13779;-33.886;151.198;2023-07-20T09:01:55;16.38;;;6.30;;
25990;SDS011;13779;-33.886;151.198;2023-07-20T09:04:27;14.35;;;5.88;;
25990;SDS011;13779;-33.886;151.198;2023-07-20T09:06:58;19.42;;;6.72;;
25990;SDS011;13779;-33.886;151.198;2023-07-20T09:09:28;16.43;;;5.43;;
25990;SDS011;13779;-33.886;151.198;2023-07-20T09:11:59;12.20;;;5.47;;
25990;SDS011;13779;-33.886;151.198;2023-07-20T09:14:29;17.23;;;6.20;;
25990;SDS011;13779;-33.886;151.198;2023-07-20T09:17:00;13.52;;;5.97;;
25990;SDS011;13779;-33.886;151.198;2023-07-20T09:19:30;17.23;;;5.80;;
25990;SDS011;13779;-33.886;151.198;2023-07-20T09:22:02;15.85;;;6.47;;
25990;SDS011;13779;-33.886;151.198;2023-07-20T09:24:35;16.65;;;6.03;;
25990;SDS011;13779;-33.886;151.198;2023-07-20T09:27:05;19.42;;;6.43;;
25990;SDS011;13779;-33.886;151.198;2023-07-20T09:29:51;14.82;;;6.35;;
25990;SDS011;13779;-33.886;151.198;2023-07-20T09:32:22;20.40;;;8.55;;
25990;SDS011;13779;-33.886;151.198;2023-07-20T09:34:52;14.40;;;5.70;;
25990;SDS011;13779;-33.886;151.198;2023-07-20T09:37:23;12.38;;;5.05;;
25990;SDS011;13779;-33.886;151.198;2023-07-20T09:42:27;13.35;;;5.00;;
25990;SDS011;13779;-33.886;151.198;2023-07-20T09:45:00;14.35;;;5.82;;
25990;SDS011;13779;-33.886;151.198;2023-07-20T09:47:31;14.60;;;5.57;;
25990;SDS011;13779;-33.886;151.198;2023-07-20T09:50:05;11.80;;;5.50;;
25990;SDS011;13779;-33.886;151.198;2023-07-20T09:52:43;13.88;;;7.70;;
25990;SDS011;13779;-33.886;151.198;2023-07-20T09:55:17;75.75;;;51.08;;
25990;SDS011;13779;-33.886;151.198;2023-07-20T09:57:49;20.25;;;10.32;;
25990;SDS011;13779;-33.886;151.198;2023-07-20T10:00:22;19.48;;;7.35;;
25990;SDS011;13779;-33.886;151.198;2023-07-20T10:02:55;20.95;;;9.23;;
25990;SDS011;13779;-33.886;151.198;2023-07-20T10:05:28;16.38;;;6.68;;
25990;SDS011;13779;-33.886;151.198;2023-07-20T10:08:05;13.27;;;6.20;;
25990;SDS011;13779;-33.886;151.198;2023-07-20T10:10:43;10.40;;;4.88;;
25990;SDS011;13779;-33.886;151.198;2023-07-20T10:13:17;14.23;;;5.78;;
25990;SDS011;13779;-33.886;151.198;2023-07-20T10:15:59;12.60;;;5.57;;
25990;SDS011;13779;-33.886;151.198;2023-07-20T10:21:40;14.65;;;5.40;;
25990;SDS011;13779;-33.886;151.198;2023-07-20T10:24:16;9.65;;;5.75;;
25990;SDS011;13779;-33.886;151.198;2023-07-20T10:26:48;11.50;;;5.13;;
25990;SDS011;13779;-33.886;151.198;2023-07-20T10:29:19;10.52;;;4.45;;
25990;SDS011;13779;-33.886;151.198;2023-07-20T10:34:21;13.57;;;5.45;;
25990;SDS011;13779;-33.886;151.198;2023-07-20T10:36:52;11.93;;;4.93;;
25990;SDS011;13779;-33.886;151.198;2023-07-20T10:39:24;12.37;;;5.57;;
25990;SDS011;13779;-33.886;151.198;2023-07-20T10:42:03;14.50;;;5.30;;
25990;SDS011;13779;-33.886;151.198;2023-07-20T10:44:37;10.90;;;4.35;;
25990;SDS011;13779;-33.886;151.198;2023-07-20T10:47:15;9.45;;;4.47;;
25990;SDS011;13779;-33.886;151.198;2023-07-20T10:49:59;14.67;;;4.60;;
25990;SDS011;13779;-33.886;151.198;2023-07-20T10:52:39;10.40;;;5.00;;
25990;SDS011;13779;-33.886;151.198;2023-07-20T10:55:10;12.23;;;4.78;;
25990;SDS011;13779;-33.886;151.198;2023-07-20T10:57:59;11.07;;;4.80;;
25990;SDS011;13779;-33.886;151.198;2023-07-20T11:00:58;9.93;;;5.22;;
25990;SDS011;13779;-33.886;151.198;2023-07-20T11:03:37;11.90;;;5.93;;
25990;SDS011;13779;-33.886;151.198;2023-07-20T11:11:36;11.55;;;6.30;;
25990;SDS011;13779;-33.886;151.198;2023-07-20T11:14:09;16.98;;;6.47;;
25990;SDS011;13779;-33.886;151.198;2023-07-20T11:16:52;13.45;;;6.80;;
25990;SDS011;13779;-33.886;151.198;2023-07-20T11:19:24;13.23;;;6.45;;
25990;SDS011;13779;-33.886;151.198;2023-07-20T11:21:58;14.10;;;7.28;;
25990;SDS011;13779;-33.886;151.198;2023-07-20T11:24:39;11.85;;;6.20;;
25990;SDS011;13779;-33.886;151.198;2023-07-20T11:27:11;13.48;;;5.95;;
25990;SDS011;13779;-33.886;151.198;2023-07-20T11:29:41;13.77;;;6.47;;
25990;SDS011;13779;-33.886;151.198;2023-07-20T11:32:23;14.32;;;6.75;;
25990;SDS011;13779;-33.886;151.198;2023-07-20T11:34:54;16.05;;;6.78;;
25990;SDS011;13779;-33.886;151.198;2023-07-20T11:37:24;11.88;;;7.22;;
25990;SDS011;13779;-33.886;151.198;2023-07-20T11:39:56;17.00;;;7.07;;
25990;SDS011;13779;-33.886;151.198;2023-07-20T11:42:27;16.38;;;6.88;;
25990;SDS011;13779;-33.886;151.198;2023-07-20T11:45:05;16.42;;;7.57;;
25990;SDS011;13779;-33.886;151.198;2023-07-20T11:47:39;25.67;;;7.43;;
25990;SDS011;13779;-33.886;151.198;2023-07-20T11:50:13;12.65;;;6.43;;
25990;SDS011;13779;-33.886;151.198;2023-07-20T11:52:45;11.63;;;6.18;;
25990;SDS011;13779;-33.886;151.198;2023-07-20T11:55:16;12.02;;;6.35;;
25990;SDS011;13779;-33.886;151.198;2023-07-20T12:00:33;13.65;;;7.50;;
25990;SDS011;13779;-33.886;151.198;2023-07-20T12:05:39;15.10;;;6.93;;
25990;SDS011;13779;-33.886;151.198;2023-07-20T12:08:26;14.35;;;6.43;;
25990;SDS011;13779;-33.886;151.198;2023-07-20T12:10:57;14.98;;;7.22;;
25990;SDS011;13779;-33.886;151.198;2023-07-20T12:13:42;19.83;;;7.35;;
25990;SDS011;13779;-33.886;151.198;2023-07-20T12:16:14;15.55;;;7.03;;
25990;SDS011;13779;-33.886;151.198;2023-07-20T12:18:45;13.45;;;6.90;;
25990;SDS011;13779;-33.886;151.198;2023-07-20T12:21:15;18.45;;;8.05;;
25990;SDS011;13779;-33.886;151.198;2023-07-20T12:23:48;20.92;;;7.43;;
25990;SDS011;13779;-33.886;151.198;2023-07-20T12:26:18;18.20;;;7.15;;
25990;SDS011;13779;-33.886;151.198;2023-07-20T12:28:52;21.88;;;7.18;;
25990;SDS011;13779;-33.886;151.198;2023-07-20T12:31:23;17.80;;;7.07;;
25990;SDS011;13779;-33.886;151.198;2023-07-20T12:33:54;12.88;;;6.78;;
25990;SDS011;13779;-33.886;151.198;2023-07-20T12:38:55;10.15;;;6.03;;
25990;SDS011;13779;-33.886;151.198;2023-07-20T12:41:25;16.95;;;6.18;;
25990;SDS011;13779;-33.886;151.198;2023-07-20T12:43:55;14.48;;;5.82;;
25990;SDS011;13779;-33.886;151.198;2023-07-20T12:46:26;11.27;;;5.88;;
25990;SDS011;13779;-33.886;151.198;2023-07-20T12:48:57;13.32;;;6.05;;
25990;SDS011;13779;-33.886;151.198;2023-07-20T12:51:28;12.90;;;6.15;;
25990;SDS011;13779;-33.886;151.198;2023-07-20T12:53:58;10.73;;;5.97;;
25990;SDS011;13779;-33.886;151.198;2023-07-20T12:56:28;13.32;;;6.10;;
25990;SDS011;13779;-33.886;151.198;2023-07-20T12:59:01;11.55;;;6.10;;
25990;SDS011;13779;-33.886;151.198;2023-07-20T13:01:31;13.48;;;6.18;;
25990;SDS011;13779;-33.886;151.198;2023-07-20T13:04:01;15.68;;;6.68;;
25990;SDS011;13779;-33.886;151.198;2023-07-20T13:06:34;15.00;;;7.35;;
25990;SDS011;13779;-33.886;151.198;2023-07-20T13:09:05;14.77;;;6.35;;
25990;SDS011;13779;-33.886;151.198;2023-07-20T13:11:35;13.07;;;6.03;;
25990;SDS011;13779;-33.886;151.198;2023-07-20T13:14:05;13.95;;;6.68;;
25990;SDS011;13779;-33.886;151.198;2023-07-20T13:16:35;14.15;;;5.40;;
25990;SDS011;13779;-33.886;151.198;2023-07-20T13:19:05;12.95;;;6.13;;
25990;SDS011;13779;-33.886;151.198;2023-07-20T13:21:35;12.20;;;6.38;;
25990;SDS011;13779;-33.886;151.198;2023-07-20T13:24:06;13.32;;;5.82;;
25990;SDS011;13779;-33.886;151.198;2023-07-20T13:26:36;10.82;;;5.32;;
25990;SDS011;13779;-33.886;151.198;2023-07-20T13:29:06;12.20;;;6.60;;
25990;SDS011;13779;-33.886;151.198;2023-07-20T13:31:36;11.68;;;5.40;;
25990;SDS011;13779;-33.886;151.198;2023-07-20T13:34:08;11.45;;;5.55;;
25990;SDS011;13779;-33.886;151.198;2023-07-20T13:36:40;12.07;;;5.55;;
25990;SDS011;13779;-33.886;151.198;2023-07-20T13:39:11;11.07;;;5.97;;
25990;SDS011;13779;-33.886;151.198;2023-07-20T13:41:41;12.57;;;6.13;;
25990;SDS011;13779;-33.886;151.198;2023-07-20T13:44:11;11.95;;;5.50;;
25990;SDS011;13779;-33.886;151.198;2023-07-20T13:49:12;12.48;;;5.20;;
25990;SDS011;13779;-33.886;151.198;2023-07-20T13:51:49;12.13;;;5.32;;
25990;SDS011;13779;-33.886;151.198;2023-07-20T13:54:23;12.30;;;5.07;;
25990;SDS011;13779;-33.886;151.198;2023-07-20T13:56:53;8.73;;;4.72;;
25990;SDS011;13779;-33.886;151.198;2023-07-20T13:59:24;11.02;;;5.20;;
25990;SDS011;13779;-33.886;151.198;2023-07-20T14:01:54;8.75;;;5.63;;
25990;SDS011;13779;-33.886;151.198;2023-07-20T14:04:27;9.10;;;4.60;;
25990;SDS011;13779;-33.886;151.198;2023-07-20T14:06:57;10.35;;;6.05;;
25990;SDS011;13779;-33.886;151.198;2023-07-20T14:09:27;10.65;;;4.90;;
25990;SDS011;13779;-33.886;151.198;2023-07-20T14:11:58;14.45;;;5.22;;
25990;SDS011;13779;-33.886;151.198;2023-07-20T14:14:31;9.70;;;5.38;;
25990;SDS011;13779;-33.886;151.198;2023-07-20T14:17:01;13.48;;;5.47;;
25990;SDS011;13779;-33.886;151.198;2023-07-20T14:19:31;8.43;;;4.40;;
25990;SDS011;13779;-33.886;151.198;2023-07-20T14:22:01;8.20;;;4.55;;
25990;SDS011;13779;-33.886;151.198;2023-07-20T14:24:32;7.03;;;3.95;;
25990;SDS011;13779;-33.886;151.198;2023-07-20T14:27:02;8.73;;;4.10;;
25990;SDS011;13779;-33.886;151.198;2023-07-20T14:29:33;6.00;;;3.42;;
25990;SDS011;13779;-33.886;151.198;2023-07-20T14:32:04;6.40;;;3.13;;
25990;SDS011;13779;-33.886;151.198;2023-07-20T14:34:35;6.75;;;3.53;;
25990;SDS011;13779;-33.886;151.198;2023-07-20T14:37:06;8.20;;;3.30;;
25990;SDS011;13779;-33.886;151.198;2023-07-20T14:39:36;6.88;;;3.67;;
25990;SDS011;13779;-33.886;151.198;2023-07-20T14:42:06;7.00;;;3.60;;
25990;SDS011;13779;-33.886;151.198;2023-07-20T14:44:37;8.88;;;4.63;;
25990;SDS011;13779;-33.886;151.198;2023-07-20T14:47:07;7.82;;;3.88;;
25990;SDS011;13779;-33.886;151.198;2023-07-20T14:49:40;9.10;;;4.80;;
25990;SDS011;13779;-33.886;151.198;2023-07-20T14:52:11;7.38;;;4.22;;
25990;SDS011;13779;-33.886;151.198;2023-07-20T14:54:41;4.97;;;3.42;;
25990;SDS011;13779;-33.886;151.198;2023-07-20T14:57:12;7.25;;;3.33;;
25990;SDS011;13779;-33.886;151.198;2023-07-20T14:59:42;6.57;;;3.38;;
25990;SDS011;13779;-33.886;151.198;2023-07-20T15:02:12;6.50;;;3.53;;
25990;SDS011;13779;-33.886;151.198;2023-07-20T15:04:49;5.55;;;3.42;;
25990;SDS011;13779;-33.886;151.198;2023-07-20T15:07:20;7.75;;;3.35;;
25990;SDS011;13779;-33.886;151.198;2023-07-20T15:09:51;5.68;;;3.65;;
25990;SDS011;13779;-33.886;151.198;2023-07-20T15:12:21;6.85;;;3.92;;
25990;SDS011;13779;-33.886;151.198;2023-07-20T15:15:04;7.57;;;5.03;;